sensor_id;sensor_type;location;lat;lon;timestamp;temperature;humidity
67870;DHT22;54673;52.262;6.830;2023-07-13T00:02:06;24.20;42.00
67870;DHT22;54673;52.262;6.830;2023-07-13T00:04:32;24.20;42.00
67870;DHT22;54673;52.262;6.830;2023-07-13T00:06:58;24.30;42.10
67870;DHT22;54673;52.262;6.830;2023-07-13T00:09:23;24.20;42.10
67870;DHT22;54673;52.262;6.830;2023-07-13T00:11:54;24.10;42.30
67870;DHT22;54673;52.262;6.830;2023-07-13T00:14:20;24.20;42.30
67870;DHT22;54673;52.262;6.830;2023-07-13T00:16:46;24.30;42.40
67870;DHT22;54673;52.262;6.830;2023-07-13T00:19:12;24.30;42.30
67870;DHT22;54673;52.262;6.830;2023-07-13T00:21:39;24.40;42.30
67870;DHT22;54673;52.262;6.830;2023-07-13T00:24:07;24.30;42.40
67870;DHT22;54673;52.262;6.830;2023-07-13T00:26:33;24.20;43.30
67870;DHT22;54673;52.262;6.830;2023-07-13T00:28:59;24.20;43.30
67870;DHT22;54673;52.262;6.830;2023-07-13T00:31:25;24.20;42.60
67870;DHT22;54673;52.262;6.830;2023-07-13T00:33:51;24.20;42.60
67870;DHT22;54673;52.262;6.830;2023-07-13T00:36:17;24.20;42.60
67870;DHT22;54673;52.262;6.830;2023-07-13T00:38:43;24.40;42.60
67870;DHT22;54673;52.262;6.830;2023-07-13T00:41:10;24.50;42.90
67870;DHT22;54673;52.262;6.830;2023-07-13T00:43:36;24.60;43.00
67870;DHT22;54673;52.262;6.830;2023-07-13T00:48:32;24.80;42.90
67870;DHT22;54673;52.262;6.830;2023-07-13T00:50:59;24.80;43.00
67870;DHT22;54673;52.262;6.830;2023-07-13T00:53:28;24.80;42.90
67870;DHT22;54673;52.262;6.830;2023-07-13T00:55:55;24.80;43.00
67870;DHT22;54673;52.262;6.830;2023-07-13T00:58:22;24.80;43.10
67870;DHT22;54673;52.262;6.830;2023-07-13T01:00:49;24.80;43.10
67870;DHT22;54673;52.262;6.830;2023-07-13T01:03:16;24.80;43.20
67870;DHT22;54673;52.262;6.830;2023-07-13T01:05:42;24.80;43.30
67870;DHT22;54673;52.262;6.830;2023-07-13T01:08:07;24.80;43.20
67870;DHT22;54673;52.262;6.830;2023-07-13T01:10:34;24.80;43.30
67870;DHT22;54673;52.262;6.830;2023-07-13T01:13:06;24.80;43.40
67870;DHT22;54673;52.262;6.830;2023-07-13T01:15:41;24.80;43.40
67870;DHT22;54673;52.262;6.830;2023-07-13T01:18:15;24.80;43.30
67870;DHT22;54673;52.262;6.830;2023-07-13T01:23:23;24.80;43.40
67870;DHT22;54673;52.262;6.830;2023-07-13T01:25:50;24.80;43.30
67870;DHT22;54673;52.262;6.830;2023-07-13T01:28:17;24.80;43.20
67870;DHT22;54673;52.262;6.830;2023-07-13T01:30:44;24.80;43.20
67870;DHT22;54673;52.262;6.830;2023-07-13T01:33:16;24.70;43.40
67870;DHT22;54673;52.262;6.830;2023-07-13T01:35:43;24.80;43.50
67870;DHT22;54673;52.262;6.830;2023-07-13T01:38:10;24.80;43.50
67870;DHT22;54673;52.262;6.830;2023-07-13T01:40:36;24.80;43.60
67870;DHT22;54673;52.262;6.830;2023-07-13T01:43:02;24.80;43.40
67870;DHT22;54673;52.262;6.830;2023-07-13T01:45:28;24.80;44.40
67870;DHT22;54673;52.262;6.830;2023-07-13T01:47:54;24.70;43.40
67870;DHT22;54673;52.262;6.830;2023-07-13T01:50:20;24.80;43.50
67870;DHT22;54673;52.262;6.830;2023-07-13T01:52:46;24.70;43.30
67870;DHT22;54673;52.262;6.830;2023-07-13T01:55:11;24.70;43.30
67870;DHT22;54673;52.262;6.830;2023-07-13T01:57:37;24.70;43.50
67870;DHT22;54673;52.262;6.830;2023-07-13T02:00:05;24.70;43.30
67870;DHT22;54673;52.262;6.830;2023-07-13T02:02:31;24.70;43.40
67870;DHT22;54673;52.262;6.830;2023-07-13T02:04:57;24.70;43.50
67870;DHT22;54673;52.262;6.830;2023-07-13T02:07:23;24.70;43.40
67870;DHT22;54673;52.262;6.830;2023-07-13T02:09:48;24.70;43.50
67870;DHT22;54673;52.262;6.830;2023-07-13T02:12:14;24.60;43.20
67870;DHT22;54673;52.262;6.830;2023-07-13T02:14:40;24.70;43.40
67870;DHT22;54673;52.262;6.830;2023-07-13T02:17:06;24.70;43.40
67870;DHT22;54673;52.262;6.830;2023-07-13T02:19:31;24.70;43.30
67870;DHT22;54673;52.262;6.830;2023-07-13T02:21:57;24.60;43.20
67870;DHT22;54673;52.262;6.830;2023-07-13T02:24:23;24.70;43.40
67870;DHT22;54673;52.262;6.830;2023-07-13T02:26:49;24.70;43.20
67870;DHT22;54673;52.262;6.830;2023-07-13T02:29:14;24.70;43.30
67870;DHT22;54673;52.262;6.830;2023-07-13T02:31:40;24.70;43.30
67870;DHT22;54673;52.262;6.830;2023-07-13T02:34:06;24.70;43.30
67870;DHT22;54673;52.262;6.830;2023-07-13T02:36:32;24.60;43.10
67870;DHT22;54673;52.262;6.830;2023-07-13T02:39:01;24.60;43.10
67870;DHT22;54673;52.262;6.830;2023-07-13T02:41:28;24.60;43.40
67870;DHT22;54673;52.262;6.830;2023-07-13T02:43:54;24.60;43.30
67870;DHT22;54673;52.262;6.830;2023-07-13T02:46:28;24.60;43.30
67870;DHT22;54673;52.262;6.830;2023-07-13T02:48:54;24.70;43.60
67870;DHT22;54673;52.262;6.830;2023-07-13T02:51:20;24.60;43.30
67870;DHT22;54673;52.262;6.830;2023-07-13T02:53:45;24.50;43.40
67870;DHT22;54673;52.262;6.830;2023-07-13T02:56:11;24.50;43.60
67870;DHT22;54673;52.262;6.830;2023-07-13T02:58:36;24.50;43.30
67870;DHT22;54673;52.262;6.830;2023-07-13T03:01:08;24.50;43.40
67870;DHT22;54673;52.262;6.830;2023-07-13T03:03:34;24.50;43.20
67870;DHT22;54673;52.262;6.830;2023-07-13T03:06:01;24.40;43.20
67870;DHT22;54673;52.262;6.830;2023-07-13T03:08:28;24.50;43.50
67870;DHT22;54673;52.262;6.830;2023-07-13T03:11:27;24.50;44.40
67870;DHT22;54673;52.262;6.830;2023-07-13T03:13:52;24.50;43.50
67870;DHT22;54673;52.262;6.830;2023-07-13T03:16:18;24.50;43.50
67870;DHT22;54673;52.262;6.830;2023-07-13T03:18:45;24.50;43.50
67870;DHT22;54673;52.262;6.830;2023-07-13T03:21:11;24.50;43.50
67870;DHT22;54673;52.262;6.830;2023-07-13T03:23:37;24.40;43.50
67870;DHT22;54673;52.262;6.830;2023-07-13T03:28:31;24.40;43.50
67870;DHT22;54673;52.262;6.830;2023-07-13T03:31:05;24.50;43.50
67870;DHT22;54673;52.262;6.830;2023-07-13T03:33:31;24.50;43.50
67870;DHT22;54673;52.262;6.830;2023-07-13T03:35:57;24.60;43.60
67870;DHT22;54673;52.262;6.830;2023-07-13T03:38:23;24.60;43.50
67870;DHT22;54673;52.262;6.830;2023-07-13T03:40:49;24.50;43.50
67870;DHT22;54673;52.262;6.830;2023-07-13T03:43:14;24.50;43.50
67870;DHT22;54673;52.262;6.830;2023-07-13T03:45:40;24.50;44.40
67870;DHT22;54673;52.262;6.830;2023-07-13T03:48:06;24.50;43.50
67870;DHT22;54673;52.262;6.830;2023-07-13T03:50:32;24.50;44.40
67870;DHT22;54673;52.262;6.830;2023-07-13T03:52:58;24.50;43.50
67870;DHT22;54673;52.262;6.830;2023-07-13T03:55:24;24.40;43.50
67870;DHT22;54673;52.262;6.830;2023-07-13T03:57:59;24.40;43.50
67870;DHT22;54673;52.262;6.830;2023-07-13T04:00:25;24.40;44.40
67870;DHT22;54673;52.262;6.830;2023-07-13T04:02:51;24.40;43.50
67870;DHT22;54673;52.262;6.830;2023-07-13T04:05:17;24.40;43.50
67870;DHT22;54673;52.262;6.830;2023-07-13T04:07:43;24.30;43.40
67870;DHT22;54673;52.262;6.830;2023-07-13T04:10:09;24.30;43.40
67870;DHT22;54673;52.262;6.830;2023-07-13T04:12:35;24.20;43.40
67870;DHT22;54673;52.262;6.830;2023-07-13T04:15:01;24.20;43.40
67870;DHT22;54673;52.262;6.830;2023-07-13T04:17:26;24.10;43.30
67870;DHT22;54673;52.262;6.830;2023-07-13T04:19:52;24.00;43.70
67870;DHT22;54673;52.262;6.830;2023-07-13T04:22:18;24.00;43.90
67870;DHT22;54673;52.262;6.830;2023-07-13T04:24:43;24.00;43.90
67870;DHT22;54673;52.262;6.830;2023-07-13T04:27:09;24.00;43.80
67870;DHT22;54673;52.262;6.830;2023-07-13T04:29:35;24.00;43.80
67870;DHT22;54673;52.262;6.830;2023-07-13T04:32:00;24.00;44.00
67870;DHT22;54673;52.262;6.830;2023-07-13T04:34:26;24.00;43.90
67870;DHT22;54673;52.262;6.830;2023-07-13T04:36:52;23.90;44.00
67870;DHT22;54673;52.262;6.830;2023-07-13T04:39:18;23.90;44.10
67870;DHT22;54673;52.262;6.830;2023-07-13T04:41:43;23.90;44.10
67870;DHT22;54673;52.262;6.830;2023-07-13T04:44:09;23.90;44.20
67870;DHT22;54673;52.262;6.830;2023-07-13T04:46:35;23.90;44.30
67870;DHT22;54673;52.262;6.830;2023-07-13T04:49:00;23.90;44.30
67870;DHT22;54673;52.262;6.830;2023-07-13T04:51:28;23.90;44.40
67870;DHT22;54673;52.262;6.830;2023-07-13T04:53:54;23.80;44.40
67870;DHT22;54673;52.262;6.830;2023-07-13T04:56:20;23.80;44.40
67870;DHT22;54673;52.262;6.830;2023-07-13T04:58:46;23.90;44.50
67870;DHT22;54673;52.262;6.830;2023-07-13T05:01:11;23.80;44.60
67870;DHT22;54673;52.262;6.830;2023-07-13T05:03:39;23.70;44.60
67870;DHT22;54673;52.262;6.830;2023-07-13T05:06:06;23.70;44.70
67870;DHT22;54673;52.262;6.830;2023-07-13T05:08:33;23.80;44.90
67870;DHT22;54673;52.262;6.830;2023-07-13T05:11:02;23.70;44.80
67870;DHT22;54673;52.262;6.830;2023-07-13T05:13:28;23.70;44.90
67870;DHT22;54673;52.262;6.830;2023-07-13T05:15:59;23.70;45.00
67870;DHT22;54673;52.262;6.830;2023-07-13T05:18:25;23.60;45.10
67870;DHT22;54673;52.262;6.830;2023-07-13T05:21:03;23.60;45.20
67870;DHT22;54673;52.262;6.830;2023-07-13T05:23:30;23.50;45.40
67870;DHT22;54673;52.262;6.830;2023-07-13T05:25:56;23.50;45.40
67870;DHT22;54673;52.262;6.830;2023-07-13T05:28:22;23.50;45.50
67870;DHT22;54673;52.262;6.830;2023-07-13T05:30:48;23.50;45.60
67870;DHT22;54673;52.262;6.830;2023-07-13T05:33:14;23.60;45.60
67870;DHT22;54673;52.262;6.830;2023-07-13T05:35:40;23.60;45.60
67870;DHT22;54673;52.262;6.830;2023-07-13T05:38:05;23.50;45.70
67870;DHT22;54673;52.262;6.830;2023-07-13T05:40:31;23.30;46.10
67870;DHT22;54673;52.262;6.830;2023-07-13T05:42:57;23.40;46.30
67870;DHT22;54673;52.262;6.830;2023-07-13T05:45:23;23.30;46.30
67870;DHT22;54673;52.262;6.830;2023-07-13T05:47:49;23.30;46.40
67870;DHT22;54673;52.262;6.830;2023-07-13T05:50:14;23.40;46.40
67870;DHT22;54673;52.262;6.830;2023-07-13T05:52:40;23.40;46.40
67870;DHT22;54673;52.262;6.830;2023-07-13T05:55:06;23.40;46.50
67870;DHT22;54673;52.262;6.830;2023-07-13T05:57:32;23.50;46.70
67870;DHT22;54673;52.262;6.830;2023-07-13T05:59:57;23.50;46.60
67870;DHT22;54673;52.262;6.830;2023-07-13T06:02:23;23.50;46.70
67870;DHT22;54673;52.262;6.830;2023-07-13T06:04:49;23.40;46.80
67870;DHT22;54673;52.262;6.830;2023-07-13T06:07:14;23.40;47.00
67870;DHT22;54673;52.262;6.830;2023-07-13T06:09:40;23.40;47.00
67870;DHT22;54673;52.262;6.830;2023-07-13T06:12:06;23.30;47.20
67870;DHT22;54673;52.262;6.830;2023-07-13T06:14:32;23.30;47.50
67870;DHT22;54673;52.262;6.830;2023-07-13T06:16:58;23.30;47.70
67870;DHT22;54673;52.262;6.830;2023-07-13T06:19:23;23.30;47.80
67870;DHT22;54673;52.262;6.830;2023-07-13T06:21:49;23.30;47.80
67870;DHT22;54673;52.262;6.830;2023-07-13T06:24:15;23.30;47.90
67870;DHT22;54673;52.262;6.830;2023-07-13T06:26:40;23.30;47.90
67870;DHT22;54673;52.262;6.830;2023-07-13T06:29:06;23.40;47.90
67870;DHT22;54673;52.262;6.830;2023-07-13T06:31:32;23.30;48.00
67870;DHT22;54673;52.262;6.830;2023-07-13T06:33:57;23.30;48.10
67870;DHT22;54673;52.262;6.830;2023-07-13T06:36:23;23.20;48.30
67870;DHT22;54673;52.262;6.830;2023-07-13T06:38:49;23.10;48.60
67870;DHT22;54673;52.262;6.830;2023-07-13T06:41:14;23.30;48.70
67870;DHT22;54673;52.262;6.830;2023-07-13T06:43:40;23.30;48.70
67870;DHT22;54673;52.262;6.830;2023-07-13T06:46:06;23.30;48.60
67870;DHT22;54673;52.262;6.830;2023-07-13T06:48:31;23.40;48.60
67870;DHT22;54673;52.262;6.830;2023-07-13T06:50:57;23.50;48.50
67870;DHT22;54673;52.262;6.830;2023-07-13T06:53:23;24.00;48.90
67870;DHT22;54673;52.262;6.830;2023-07-13T06:55:49;23.40;48.70
67870;DHT22;54673;52.262;6.830;2023-07-13T06:58:16;23.50;49.30
67870;DHT22;54673;52.262;6.830;2023-07-13T07:00:43;23.60;48.80
67870;DHT22;54673;52.262;6.830;2023-07-13T07:03:08;23.70;48.70
67870;DHT22;54673;52.262;6.830;2023-07-13T07:05:34;23.70;48.60
67870;DHT22;54673;52.262;6.830;2023-07-13T07:08:00;23.70;48.70
67870;DHT22;54673;52.262;6.830;2023-07-13T07:10:26;23.80;48.70
67870;DHT22;54673;52.262;6.830;2023-07-13T07:12:51;23.80;49.70
67870;DHT22;54673;52.262;6.830;2023-07-13T07:15:18;23.80;48.90
67870;DHT22;54673;52.262;6.830;2023-07-13T07:17:43;23.90;48.80
67870;DHT22;54673;52.262;6.830;2023-07-13T07:20:09;23.90;48.70
67870;DHT22;54673;52.262;6.830;2023-07-13T07:22:35;24.00;48.50
67870;DHT22;54673;52.262;6.830;2023-07-13T07:25:01;24.10;48.50
67870;DHT22;54673;52.262;6.830;2023-07-13T07:27:27;24.10;48.40
67870;DHT22;54673;52.262;6.830;2023-07-13T07:29:52;24.10;48.40
67870;DHT22;54673;52.262;6.830;2023-07-13T07:32:19;24.20;48.40
67870;DHT22;54673;52.262;6.830;2023-07-13T07:34:45;24.20;48.40
67870;DHT22;54673;52.262;6.830;2023-07-13T07:37:12;24.10;48.40
67870;DHT22;54673;52.262;6.830;2023-07-13T07:39:38;24.20;48.50
67870;DHT22;54673;52.262;6.830;2023-07-13T07:42:05;24.10;48.40
67870;DHT22;54673;52.262;6.830;2023-07-13T07:44:31;24.10;48.60
67870;DHT22;54673;52.262;6.830;2023-07-13T07:46:57;24.00;48.50
67870;DHT22;54673;52.262;6.830;2023-07-13T07:49:23;24.00;48.80
67870;DHT22;54673;52.262;6.830;2023-07-13T07:51:49;24.00;48.90
67870;DHT22;54673;52.262;6.830;2023-07-13T07:54:15;24.00;48.90
67870;DHT22;54673;52.262;6.830;2023-07-13T07:56:40;23.90;49.10
67870;DHT22;54673;52.262;6.830;2023-07-13T07:59:06;23.90;49.20
67870;DHT22;54673;52.262;6.830;2023-07-13T08:01:32;23.90;49.20
67870;DHT22;54673;52.262;6.830;2023-07-13T08:03:57;24.00;49.10
67870;DHT22;54673;52.262;6.830;2023-07-13T08:06:23;24.00;49.00
67870;DHT22;54673;52.262;6.830;2023-07-13T08:08:49;24.10;49.00
67870;DHT22;54673;52.262;6.830;2023-07-13T08:11:16;24.20;49.10
67870;DHT22;54673;52.262;6.830;2023-07-13T08:13:41;24.20;49.60
67870;DHT22;54673;52.262;6.830;2023-07-13T08:16:07;24.20;49.70
67870;DHT22;54673;52.262;6.830;2023-07-13T08:18:33;24.30;49.80
67870;DHT22;54673;52.262;6.830;2023-07-13T08:21:03;24.30;49.80
67870;DHT22;54673;52.262;6.830;2023-07-13T08:23:29;24.40;49.70
67870;DHT22;54673;52.262;6.830;2023-07-13T08:25:55;24.40;49.60
67870;DHT22;54673;52.262;6.830;2023-07-13T08:28:22;24.30;49.60
67870;DHT22;54673;52.262;6.830;2023-07-13T08:30:48;24.30;49.70
67870;DHT22;54673;52.262;6.830;2023-07-13T08:33:18;24.30;49.70
67870;DHT22;54673;52.262;6.830;2023-07-13T08:35:50;24.30;49.60
67870;DHT22;54673;52.262;6.830;2023-07-13T08:38:17;24.20;49.60
67870;DHT22;54673;52.262;6.830;2023-07-13T08:40:43;24.30;49.60
67870;DHT22;54673;52.262;6.830;2023-07-13T08:43:15;24.30;49.50
67870;DHT22;54673;52.262;6.830;2023-07-13T08:45:45;24.30;49.60
67870;DHT22;54673;52.262;6.830;2023-07-13T08:51:28;24.30;49.50
67870;DHT22;54673;52.262;6.830;2023-07-13T08:54:00;24.40;49.70
67870;DHT22;54673;52.262;6.830;2023-07-13T08:56:29;24.10;49.30
67870;DHT22;54673;52.262;6.830;2023-07-13T08:59:03;24.40;49.70
67870;DHT22;54673;52.262;6.830;2023-07-13T09:01:46;24.40;49.50
67870;DHT22;54673;52.262;6.830;2023-07-13T09:04:19;24.30;49.40
67870;DHT22;54673;52.262;6.830;2023-07-13T09:15:03;24.40;49.50
67870;DHT22;54673;52.262;6.830;2023-07-13T09:17:37;24.20;49.30
67870;DHT22;54673;52.262;6.830;2023-07-13T09:22:46;24.30;49.50
67870;DHT22;54673;52.262;6.830;2023-07-13T09:27:56;24.30;49.40
67870;DHT22;54673;52.262;6.830;2023-07-13T09:30:50;24.30;49.50
67870;DHT22;54673;52.262;6.830;2023-07-13T09:33:19;24.30;49.60
67870;DHT22;54673;52.262;6.830;2023-07-13T09:35:45;24.40;49.80
67870;DHT22;54673;52.262;6.830;2023-07-13T09:38:17;24.50;49.80
67870;DHT22;54673;52.262;6.830;2023-07-13T09:43:24;24.50;49.70
67870;DHT22;54673;52.262;6.830;2023-07-13T09:45:50;24.40;49.60
67870;DHT22;54673;52.262;6.830;2023-07-13T09:48:17;24.50;49.80
67870;DHT22;54673;52.262;6.830;2023-07-13T09:50:44;24.50;49.80
67870;DHT22;54673;52.262;6.830;2023-07-13T09:53:15;24.50;49.80
67870;DHT22;54673;52.262;6.830;2023-07-13T09:55:43;24.50;49.80
67870;DHT22;54673;52.262;6.830;2023-07-13T10:00:38;24.40;49.70
67870;DHT22;54673;52.262;6.830;2023-07-13T10:03:24;24.50;50.50
67870;DHT22;54673;52.262;6.830;2023-07-13T10:05:51;24.40;50.50
67870;DHT22;54673;52.262;6.830;2023-07-13T10:08:29;24.30;49.70
67870;DHT22;54673;52.262;6.830;2023-07-13T10:11:10;24.30;49.70
67870;DHT22;54673;52.262;6.830;2023-07-13T10:13:40;24.30;49.70
67870;DHT22;54673;52.262;6.830;2023-07-13T10:16:07;24.40;49.70
67870;DHT22;54673;52.262;6.830;2023-07-13T10:18:39;24.40;49.60
67870;DHT22;54673;52.262;6.830;2023-07-13T10:21:30;24.40;49.70
67870;DHT22;54673;52.262;6.830;2023-07-13T10:24:04;24.50;49.70
67870;DHT22;54673;52.262;6.830;2023-07-13T10:26:33;24.40;49.60
67870;DHT22;54673;52.262;6.830;2023-07-13T10:29:05;24.40;49.70
67870;DHT22;54673;52.262;6.830;2023-07-13T10:31:40;24.40;49.80
67870;DHT22;54673;52.262;6.830;2023-07-13T10:34:10;24.50;49.70
67870;DHT22;54673;52.262;6.830;2023-07-13T10:36:47;24.50;49.40
67870;DHT22;54673;52.262;6.830;2023-07-13T10:39:26;24.40;49.40
67870;DHT22;54673;52.262;6.830;2023-07-13T10:42:06;24.40;49.40
67870;DHT22;54673;52.262;6.830;2023-07-13T10:44:35;24.30;49.40
67870;DHT22;54673;52.262;6.830;2023-07-13T10:47:15;24.40;49.60
67870;DHT22;54673;52.262;6.830;2023-07-13T10:49:44;24.40;49.50
67870;DHT22;54673;52.262;6.830;2023-07-13T10:52:49;24.50;49.30
67870;DHT22;54673;52.262;6.830;2023-07-13T10:55:36;24.50;49.20
67870;DHT22;54673;52.262;6.830;2023-07-13T10:58:13;24.40;49.00
67870;DHT22;54673;52.262;6.830;2023-07-13T11:03:24;24.40;48.90
67870;DHT22;54673;52.262;6.830;2023-07-13T11:10:56;24.10;49.30
67870;DHT22;54673;52.262;6.830;2023-07-13T11:21:31;24.10;50.70
67870;DHT22;54673;52.262;6.830;2023-07-13T11:26:50;24.10;50.90
67870;DHT22;54673;52.262;6.830;2023-07-13T11:31:59;24.20;51.40
67870;DHT22;54673;52.262;6.830;2023-07-13T11:34:29;24.30;51.60
67870;DHT22;54673;52.262;6.830;2023-07-13T11:36:56;24.30;51.50
67870;DHT22;54673;52.262;6.830;2023-07-13T11:39:33;24.40;51.70
67870;DHT22;54673;52.262;6.830;2023-07-13T11:42:03;24.40;51.80
67870;DHT22;54673;52.262;6.830;2023-07-13T11:44:32;24.40;51.70
67870;DHT22;54673;52.262;6.830;2023-07-13T11:47:00;24.40;51.50
67870;DHT22;54673;52.262;6.830;2023-07-13T11:49:31;24.30;50.80
67870;DHT22;54673;52.262;6.830;2023-07-13T11:51:58;24.20;50.50
67870;DHT22;54673;52.262;6.830;2023-07-13T11:54:31;24.20;50.60
67870;DHT22;54673;52.262;6.830;2023-07-13T11:57:02;24.10;50.50
67870;DHT22;54673;52.262;6.830;2023-07-13T11:59:32;24.10;50.30
67870;DHT22;54673;52.262;6.830;2023-07-13T12:01:59;24.10;50.10
67870;DHT22;54673;52.262;6.830;2023-07-13T12:04:26;24.00;50.20
67870;DHT22;54673;52.262;6.830;2023-07-13T12:07:18;23.80;50.00
67870;DHT22;54673;52.262;6.830;2023-07-13T12:09:43;23.70;49.70
67870;DHT22;54673;52.262;6.830;2023-07-13T12:12:14;23.60;49.60
67870;DHT22;54673;52.262;6.830;2023-07-13T12:14:40;23.50;49.50
67870;DHT22;54673;52.262;6.830;2023-07-13T12:17:19;23.50;49.30
67870;DHT22;54673;52.262;6.830;2023-07-13T12:19:45;23.60;49.40
67870;DHT22;54673;52.262;6.830;2023-07-13T12:22:14;23.60;49.40
67870;DHT22;54673;52.262;6.830;2023-07-13T12:24:43;23.70;49.50
67870;DHT22;54673;52.262;6.830;2023-07-13T12:27:24;23.70;49.20
67870;DHT22;54673;52.262;6.830;2023-07-13T12:30:15;23.80;49.30
67870;DHT22;54673;52.262;6.830;2023-07-13T12:33:16;23.80;49.30
67870;DHT22;54673;52.262;6.830;2023-07-13T12:35:46;23.80;49.40
67870;DHT22;54673;52.262;6.830;2023-07-13T12:38:13;23.80;49.50
67870;DHT22;54673;52.262;6.830;2023-07-13T12:40:39;23.80;49.80
67870;DHT22;54673;52.262;6.830;2023-07-13T12:43:11;23.80;50.20
67870;DHT22;54673;52.262;6.830;2023-07-13T12:45:38;23.70;50.80
67870;DHT22;54673;52.262;6.830;2023-07-13T12:48:10;23.80;51.00
67870;DHT22;54673;52.262;6.830;2023-07-13T12:50:40;23.80;50.90
67870;DHT22;54673;52.262;6.830;2023-07-13T12:53:13;23.90;51.70
67870;DHT22;54673;52.262;6.830;2023-07-13T12:55:44;23.80;50.60
67870;DHT22;54673;52.262;6.830;2023-07-13T12:58:21;23.80;50.60
67870;DHT22;54673;52.262;6.830;2023-07-13T13:00:50;23.80;50.50
67870;DHT22;54673;52.262;6.830;2023-07-13T13:03:24;23.80;50.50
67870;DHT22;54673;52.262;6.830;2023-07-13T13:06:03;23.90;50.60
67870;DHT22;54673;52.262;6.830;2023-07-13T13:08:36;23.80;50.50
67870;DHT22;54673;52.262;6.830;2023-07-13T13:11:02;23.70;50.60
67870;DHT22;54673;52.262;6.830;2023-07-13T13:13:28;23.80;50.60
67870;DHT22;54673;52.262;6.830;2023-07-13T13:15:54;23.80;50.60
67870;DHT22;54673;52.262;6.830;2023-07-13T13:18:21;23.90;50.50
67870;DHT22;54673;52.262;6.830;2023-07-13T13:20:49;23.90;50.30
67870;DHT22;54673;52.262;6.830;2023-07-13T13:23:20;23.90;50.30
67870;DHT22;54673;52.262;6.830;2023-07-13T13:25:49;23.90;50.30
67870;DHT22;54673;52.262;6.830;2023-07-13T13:28:20;23.90;50.40
67870;DHT22;54673;52.262;6.830;2023-07-13T13:30:47;23.90;50.40
67870;DHT22;54673;52.262;6.830;2023-07-13T13:33:16;23.80;50.00
67870;DHT22;54673;52.262;6.830;2023-07-13T13:35:43;23.80;49.90
67870;DHT22;54673;52.262;6.830;2023-07-13T13:38:18;23.70;49.80
67870;DHT22;54673;52.262;6.830;2023-07-13T13:40:45;23.80;49.90
67870;DHT22;54673;52.262;6.830;2023-07-13T13:45:41;24.00;49.70
67870;DHT22;54673;52.262;6.830;2023-07-13T13:48:14;24.00;49.70
67870;DHT22;54673;52.262;6.830;2023-07-13T13:50:40;24.10;49.40
67870;DHT22;54673;52.262;6.830;2023-07-13T13:53:10;24.10;49.30
67870;DHT22;54673;52.262;6.830;2023-07-13T13:55:35;24.10;49.30
67870;DHT22;54673;52.262;6.830;2023-07-13T13:58:01;24.20;49.30
67870;DHT22;54673;52.262;6.830;2023-07-13T14:00:27;24.20;49.30
67870;DHT22;54673;52.262;6.830;2023-07-13T14:02:52;24.30;49.30
67870;DHT22;54673;52.262;6.830;2023-07-13T14:05:24;24.30;49.40
67870;DHT22;54673;52.262;6.830;2023-07-13T14:07:54;24.30;49.80
67870;DHT22;54673;52.262;6.830;2023-07-13T14:10:20;24.30;50.20
67870;DHT22;54673;52.262;6.830;2023-07-13T14:12:51;24.30;50.30
67870;DHT22;54673;52.262;6.830;2023-07-13T14:15:23;24.30;50.50
67870;DHT22;54673;52.262;6.830;2023-07-13T14:17:49;24.30;50.70
67870;DHT22;54673;52.262;6.830;2023-07-13T14:20:19;24.30;51.00
67870;DHT22;54673;52.262;6.830;2023-07-13T14:22:45;24.40;51.00
67870;DHT22;54673;52.262;6.830;2023-07-13T14:25:12;24.40;51.40
67870;DHT22;54673;52.262;6.830;2023-07-13T14:27:38;24.50;51.50
67870;DHT22;54673;52.262;6.830;2023-07-13T14:30:16;24.50;51.70
67870;DHT22;54673;52.262;6.830;2023-07-13T14:32:42;24.60;51.90
67870;DHT22;54673;52.262;6.830;2023-07-13T14:35:16;24.60;52.00
67870;DHT22;54673;52.262;6.830;2023-07-13T14:37:43;24.60;52.00
67870;DHT22;54673;52.262;6.830;2023-07-13T14:40:22;24.60;52.00
67870;DHT22;54673;52.262;6.830;2023-07-13T14:42:50;24.60;52.10
67870;DHT22;54673;52.262;6.830;2023-07-13T14:45:17;24.60;52.30
67870;DHT22;54673;52.262;6.830;2023-07-13T14:47:44;24.50;52.30
67870;DHT22;54673;52.262;6.830;2023-07-13T14:50:18;24.50;52.30
67870;DHT22;54673;52.262;6.830;2023-07-13T14:52:45;24.50;52.40
67870;DHT22;54673;52.262;6.830;2023-07-13T14:55:14;24.50;52.30
67870;DHT22;54673;52.262;6.830;2023-07-13T14:57:40;24.60;52.30
67870;DHT22;54673;52.262;6.830;2023-07-13T15:00:22;24.60;52.20
67870;DHT22;54673;52.262;6.830;2023-07-13T15:02:52;24.60;52.20
67870;DHT22;54673;52.262;6.830;2023-07-13T15:05:24;24.70;52.10
67870;DHT22;54673;52.262;6.830;2023-07-13T15:07:51;24.80;52.00
67870;DHT22;54673;52.262;6.830;2023-07-13T15:10:24;24.80;51.90
67870;DHT22;54673;52.262;6.830;2023-07-13T15:13:11;24.80;51.60
67870;DHT22;54673;52.262;6.830;2023-07-13T15:15:38;24.80;51.50
67870;DHT22;54673;52.262;6.830;2023-07-13T15:18:07;24.80;51.50
67870;DHT22;54673;52.262;6.830;2023-07-13T15:20:34;24.70;51.50
67870;DHT22;54673;52.262;6.830;2023-07-13T15:23:01;24.70;51.60
67870;DHT22;54673;52.262;6.830;2023-07-13T15:25:30;24.70;51.50
67870;DHT22;54673;52.262;6.830;2023-07-13T15:27:57;24.70;51.30
67870;DHT22;54673;52.262;6.830;2023-07-13T15:30:26;24.70;51.40
67870;DHT22;54673;52.262;6.830;2023-07-13T15:32:52;24.80;51.30
67870;DHT22;54673;52.262;6.830;2023-07-13T15:35:20;24.80;51.10
67870;DHT22;54673;52.262;6.830;2023-07-13T15:37:48;24.80;51.00
67870;DHT22;54673;52.262;6.830;2023-07-13T15:40:14;24.90;50.30
67870;DHT22;54673;52.262;6.830;2023-07-13T15:42:41;24.90;50.30
67870;DHT22;54673;52.262;6.830;2023-07-13T15:45:19;25.00;50.30
67870;DHT22;54673;52.262;6.830;2023-07-13T15:47:46;25.10;50.30
67870;DHT22;54673;52.262;6.830;2023-07-13T15:50:21;25.10;50.00
67870;DHT22;54673;52.262;6.830;2023-07-13T15:52:50;25.20;50.10
67870;DHT22;54673;52.262;6.830;2023-07-13T15:55:17;25.30;50.00
67870;DHT22;54673;52.262;6.830;2023-07-13T15:57:49;25.50;49.80
67870;DHT22;54673;52.262;6.830;2023-07-13T16:00:23;25.50;49.50
67870;DHT22;54673;52.262;6.830;2023-07-13T16:02:49;25.60;49.20
67870;DHT22;54673;52.262;6.830;2023-07-13T16:05:16;25.60;48.50
67870;DHT22;54673;52.262;6.830;2023-07-13T16:07:49;25.50;48.50
67870;DHT22;54673;52.262;6.830;2023-07-13T16:10:22;25.70;48.10
67870;DHT22;54673;52.262;6.830;2023-07-13T16:12:51;25.70;48.10
67870;DHT22;54673;52.262;6.830;2023-07-13T16:15:19;25.70;47.80
67870;DHT22;54673;52.262;6.830;2023-07-13T16:17:46;25.70;47.20
67870;DHT22;54673;52.262;6.830;2023-07-13T16:20:12;25.60;46.80
67870;DHT22;54673;52.262;6.830;2023-07-13T16:22:40;25.60;46.70
67870;DHT22;54673;52.262;6.830;2023-07-13T16:25:17;25.50;46.40
67870;DHT22;54673;52.262;6.830;2023-07-13T16:27:47;25.50;46.30
67870;DHT22;54673;52.262;6.830;2023-07-13T16:30:22;25.50;46.20
67870;DHT22;54673;52.262;6.830;2023-07-13T16:32:48;25.40;46.90